Aviation Digital Data Service (ADDS)

Output produced by METARs form (1633 UTC 19 February 2017)
found at http://www.aviationweather.gov/adds/metars/
 
KORD 191453Z 1915/2018 VRB02KT P6SM FEW250 
     FM192000 08007KT P6SM SCT250 
     FM200100 10005KT P6SM SCT250 
     FM201000 13004KT 3SM BR SCT006 BKN250 
     TEMPO 2012/2015 1 1/2SM BR SCT004 OVC007 
     FM201600 16011KT P6SM SCT008 BKN035 OVC250